地図

経路データ

SID SEASON NUMBER BASIN SUBBASIN NAME ISO_TIME NATURE LAT LON WMO_WIND WMO_PRES WMO_AGENCY TRACK_TYPE DIST2LAND LANDFALL IFLAG USA_AGENCY USA_ATCF_ID USA_LAT USA_LON USA_RECORD USA_STATUS USA_WIND USA_PRES USA_SSHS USA_R34_NE USA_R34_SE USA_R34_SW USA_R34_NW USA_R50_NE USA_R50_SE USA_R50_SW USA_R50_NW USA_R64_NE USA_R64_SE USA_R64_SW USA_R64_NW USA_POCI USA_ROCI USA_RMW USA_EYE TOKYO_LAT TOKYO_LON TOKYO_GRADE TOKYO_WIND TOKYO_PRES TOKYO_R50_DIR TOKYO_R50_LONG TOKYO_R50_SHORT TOKYO_R30_DIR TOKYO_R30_LONG TOKYO_R30_SHORT TOKYO_LAND CMA_LAT CMA_LON CMA_CAT CMA_WIND CMA_PRES HKO_LAT HKO_LON HKO_CAT HKO_WIND HKO_PRES NEWDELHI_LAT NEWDELHI_LON NEWDELHI_GRADE NEWDELHI_WIND NEWDELHI_PRES NEWDELHI_CI NEWDELHI_DP NEWDELHI_POCI REUNION_LAT REUNION_LON REUNION_TYPE REUNION_WIND REUNION_PRES REUNION_TNUM REUNION_CI REUNION_RMW REUNION_R34_NE REUNION_R34_SE REUNION_R34_SW REUNION_R34_NW REUNION_R50_NE REUNION_R50_SE REUNION_R50_SW REUNION_R50_NW REUNION_R64_NE REUNION_R64_SE REUNION_R64_SW REUNION_R64_NW BOM_LAT BOM_LON BOM_TYPE BOM_WIND BOM_PRES BOM_TNUM BOM_CI BOM_RMW BOM_R34_NE BOM_R34_SE BOM_R34_SW BOM_R34_NW BOM_R50_NE BOM_R50_SE BOM_R50_SW BOM_R50_NW BOM_R64_NE BOM_R64_SE BOM_R64_SW BOM_R64_NW BOM_ROCI BOM_POCI BOM_EYE BOM_POS_METHOD BOM_PRES_METHOD NADI_LAT NADI_LON NADI_CAT NADI_WIND NADI_PRES WELLINGTON_LAT WELLINGTON_LON WELLINGTON_WIND WELLINGTON_PRES DS824_LAT DS824_LON DS824_STAGE DS824_WIND DS824_PRES TD9636_LAT TD9636_LON TD9636_STAGE TD9636_WIND TD9636_PRES TD9635_LAT TD9635_LON TD9635_WIND TD9635_PRES TD9635_ROCI NEUMANN_LAT NEUMANN_LON NEUMANN_CLASS NEUMANN_WIND NEUMANN_PRES MLC_LAT MLC_LON MLC_CLASS MLC_WIND MLC_PRES USA_GUST BOM_GUST BOM_GUST_PER REUNION_GUST REUNION_GUST_PER USA_SEAHGT USA_SEARAD_NE USA_SEARAD_SE USA_SEARAD_SW USA_SEARAD_NW STORM_SPEED STORM_DIR
1921016S18039 1921 2 SI MM NOT_NAMED 1921-01-16 06:00:00 NR -18.1000 38.6000 reunion main 104 104 _____O________ -1 -18.1000 38.6000 99 9.90000 1 62
1921016S18039 1921 2 SI MM NOT_NAMED 1921-01-16 09:00:00 NR -18.0682 38.6627 main 109 109 _____P________ -1 -18.0682 38.6627 99 1 70
1921016S18039 1921 2 SI MM NOT_NAMED 1921-01-16 12:00:00 NR -18.0770 38.6699 main 109 99 _____P____O___ -1 -18.0359 38.7265 99 -18.2000 38.5000 4 1 67
1921016S18039 1921 2 SI MM NOT_NAMED 1921-01-16 15:00:00 NR -18.0309 38.7598 main 101 101 _____P____P___ -1 -18.0025 38.7927 99 -18.0877 38.6940 4 2 61
1921016S18039 1921 2 SI MM NOT_NAMED 1921-01-16 18:00:00 NR -17.9729 38.8701 main 102 91 _____P____P___ -1 -17.9675 38.8624 99 -17.9802 38.8803 4 3 61
1921016S18039 1921 2 SI MM NOT_NAMED 1921-01-16 21:00:00 NR -17.9064 38.9941 main 95 89 _____P____P___ -1 -17.9302 38.9368 99 -17.8826 39.0514 4 3 61
1921016S18039 1921 2 SI MM NOT_NAMED 1921-01-17 00:00:00 TS -17.8401 39.1187 main 89 89 _____P___OO___ -1 -17.8903 39.0171 99 -17.8000 39.2000 TC 65 -17.8000 39.2000 4 3 61
1921016S18039 1921 2 SI MM NOT_NAMED 1921-01-17 03:00:00 TS -17.7830 39.2304 main 90 81 _____P___PP___ -1 -17.8471 39.1044 99 -17.7500 39.3000 TC 65 -17.7355 39.3214 4 2 62
1921016S18039 1921 2 SI MM NOT_NAMED 1921-01-17 06:00:00 TS -17.7309 39.3354 reunion main 81 81 _____O___OP___ -1 -17.8000 39.2000 99 9.90000 -17.7000 39.4000 TC 65 -17.6849 39.4224 4 2 63
1921016S18039 1921 2 SI MM NOT_NAMED 1921-01-17 09:00:00 TS -17.6802 39.4389 main 84 79 _____P___PP___ -1 -17.7489 39.3046 99 -17.6500 39.5000 TC 65 -17.6418 39.5121 4 2 63
1921016S18039 1921 2 SI MM NOT_NAMED 1921-01-17 12:00:00 TS -17.6317 39.5391 main 79 79 _____P___OO___ -1 -17.6950 39.4173 99 -17.6000 39.6000 TC 65 -17.6000 39.6000 4 2 63
1921016S18039 1921 2 SI MM NOT_NAMED 1921-01-17 15:00:00 TS -17.5786 39.6457 main 85 84 _____P___PP___ -1 -17.6399 39.5371 99 -17.5500 39.7000 TC 65 -17.5459 39.7000 4 2 63
1921016S18039 1921 2 SI MM NOT_NAMED 1921-01-17 18:00:00 TS -17.5258 39.7542 main 93 93 _____P___OP___ -1 -17.5850 39.6627 99 -17.5000 39.8000 TC 65 -17.4925 39.8000 4 2 64
1921016S18039 1921 2 SI MM NOT_NAMED 1921-01-17 21:00:00 TS -17.4749 39.8643 main 101 92 _____P___PP___ -1 -17.5320 39.7930 99 -17.4500 39.9000 TC 65 -17.4428 39.9000 4 2 65
1921016S18039 1921 2 SI MM NOT_NAMED 1921-01-18 00:00:00 TS -17.4275 39.9756 main 99 99 _____P___OO___ -1 -17.4825 39.9267 99 -17.4000 40.0000 TC 65 -17.4000 40.0000 4 2 66
1921016S18039 1921 2 SI MM NOT_NAMED 1921-01-18 03:00:00 TS -17.3814 40.0876 main 104 99 _____P___PP___ -1 -17.4380 40.0628 99 -17.3425 40.1000 TC 65 -17.3637 40.1000 4 2 69
1921016S18039 1921 2 SI MM NOT_NAMED 1921-01-18 06:00:00 TS -17.3450 40.2000 reunion main 99 99 _____O___OP___ -1 -17.4000 40.2000 99 9.90000 -17.3000 40.2000 TC 65 -17.3350 40.2000 4 2 75
1921016S18039 1921 2 SI MM NOT_NAMED 1921-01-18 09:00:00 TS -17.3240 40.3122 main 104 104 _____P___PP___ -1 -17.3659 40.3367 99 -17.2925 40.3000 TC 65 -17.3137 40.3000 4 2 81
1921016S18039 1921 2 SI MM NOT_NAMED 1921-01-18 12:00:00 TS -17.3124 40.4253 main 109 109 _____P___OO___ -1 -17.3372 40.4759 99 -17.3000 40.4000 TC 65 -17.3000 40.4000 4 2 84
1921016S18039 1921 2 SI MM NOT_NAMED 1921-01-18 15:00:00 TS -17.3010 40.5348 main 116 116 _____P___PP___ -1 -17.3143 40.6166 99 -17.3000 40.5000 TC 65 -17.2887 40.4878 4 2 85
1921016S18039 1921 2 SI MM NOT_NAMED 1921-01-18 18:00:00 TS -17.2941 40.6450 main 123 123 _____P___OP___ -1 -17.2975 40.7575 99 -17.3000 40.6000 TC 65 -17.2849 40.5775 4 2 88
1921016S18039 1921 2 SI MM NOT_NAMED 1921-01-18 21:00:00 TS -17.2920 40.7537 main 139 139 _____P___PP___ -1 -17.2873 40.8975 99 -17.3000 40.6850 TC 65 -17.2887 40.6785 4 2 90
1921016S18039 1921 2 SI MM NOT_NAMED 1921-01-19 00:00:00 TS -17.2947 40.8785 main 147 147 _____P___OO___ -1 -17.2841 41.0354 99 -17.3000 40.8000 TC 65 -17.3000 40.8000 4 3 91
1921016S18039 1921 2 SI MM NOT_NAMED 1921-01-19 03:00:00 TS -17.2982 41.0400 main 155 155 _____P___PP___ -1 -17.2882 41.1699 99 -17.2925 40.9925 TC 65 -17.3138 40.9575 4 3 93
1921016S18039 1921 2 SI MM NOT_NAMED 1921-01-19 06:00:00 TS -17.3117 41.2117 reunion main 173 173 _____O___OP___ -1 -17.3000 41.3000 99 9.90000 -17.3000 41.2000 TC 65 -17.3351 41.1350 4 3 98
1921016S18039 1921 2 SI MM NOT_NAMED 1921-01-19 09:00:00 TS -17.3404 41.3677 main 192 192 _____P___PP___ -1 -17.3150 41.4256 99 -17.3425 41.3575 TC 65 -17.3638 41.3200 4 3 103
1921016S18039 1921 2 SI MM NOT_NAMED 1921-01-19 12:00:00 TS -17.3793 41.5158 main 207 207 _____P___OO___ -1 -17.3380 41.5474 99 -17.4000 41.5000 TC 65 -17.4000 41.5000 4 3 106
1921016S18039 1921 2 SI MM NOT_NAMED 1921-01-19 15:00:00 TS -17.4203 41.6603 main 225 222 _____P___PP___ -1 -17.3682 41.6655 99 -17.4500 41.6500 TC 65 -17.4428 41.6653 4 3 108
1921016S18039 1921 2 SI MM NOT_NAMED 1921-01-19 18:00:00 TS -17.4658 41.8008 main 222 212 _____P___OP___ -1 -17.4049 41.7799 99 -17.5000 41.8000 TC 65 -17.4925 41.8225 4 3 109
1921016S18039 1921 2 SI MM NOT_NAMED 1921-01-19 21:00:00 TS -17.5144 41.9388 main 212 191 _____P___PP___ -1 -17.4472 41.8906 99 -17.5500 41.9575 TC 65 -17.5459 41.9684 4 3 111
1921016S18039 1921 2 SI MM NOT_NAMED 1921-01-20 00:00:00 TS -17.5648 42.0658 main 191 180 _____P___OO___ -1 -17.4943 41.9975 99 -17.6000 42.1000 TC 65 -17.6000 42.1000 4 2 113
1921016S18039 1921 2 SI MM NOT_NAMED 1921-01-20 03:00:00 TS -17.6124 42.1755 main 180 171 _____P___PP___ -1 -17.5455 42.1006 99 -17.6500 42.2075 TC 65 -17.6418 42.2185 4 2 116
1921016S18039 1921 2 SI MM NOT_NAMED 1921-01-20 06:00:00 TS -17.6616 42.2742 reunion main 171 160 _____O___OP___ -1 -17.6000 42.2000 99 9.90000 -17.7000 42.3000 TC 65 -17.6849 42.3226 4 2 118
1921016S18039 1921 2 SI MM NOT_NAMED 1921-01-20 09:00:00 TS -17.7091 42.3720 main 160 152 _____P___PP___ -1 -17.6493 42.3006 99 -17.7425 42.4000 TC 65 -17.7356 42.4154 4 2 120
1921016S18039 1921 2 SI MM NOT_NAMED 1921-01-20 12:00:00 TS -17.7675 42.4658 main 152 141 _____P___OO___ -1 -17.7024 42.3975 99 -17.8000 42.5000 TC 65 -17.8000 42.5000 4 2 129
1921016S18039 1921 2 SI MM NOT_NAMED 1921-01-20 15:00:00 TS -17.8485 42.5601 main 141 141 _____P___PP___ -1 -17.7593 42.4907 99 -17.8925 42.6075 TC 65 -17.8937 42.5822 4 2 135
1921016S18039 1921 2 SI MM NOT_NAMED 1921-01-20 18:00:00 TS -17.9400 42.6458 main 144 134 _____P___OP___ -1 -17.8199 42.5801 99 -18.0000 42.7000 TC 65 -18.0000 42.6575 4 2 141
1921016S18039 1921 2 SI MM NOT_NAMED 1921-01-20 21:00:00 TS -18.0327 42.7149 main 137 126 _____P___PP___ -1 -17.8843 42.6657 99 -18.1075 42.7500 TC 65 -18.1062 42.7290 4 2 144
1921016S18039 1921 2 SI MM NOT_NAMED 1921-01-21 00:00:00 TS -18.1175 42.7825 main 126 116 _____P___OO___ -1 -17.9525 42.7476 99 -18.2000 42.8000 TC 65 -18.2000 42.8000 4 2 135
1921016S18039 1921 2 SI MM NOT_NAMED 1921-01-21 03:00:00 TS -18.1780 42.8683 main 116 116 _____P___PP___ -1 -18.0244 42.8257 99 -18.2575 42.9000 TC 65 -18.2522 42.8791 4 2 125
1921016S18039 1921 2 SI MM NOT_NAMED 1921-01-21 06:00:00 TS -18.2308 42.9525 reunion main 105 105 _____O___OP___ -1 -18.1000 42.9000 99 9.90000 -18.3000 43.0000 TC 65 -18.2925 42.9576 4 2 125
1921016S18039 1921 2 SI MM NOT_NAMED 1921-01-21 09:00:00 TS -18.2832 43.0237 main 105 95 _____P___PP___ -1 -18.1705 42.9814 99 -18.3425 43.0575 TC 65 -18.3366 43.0322 4 2 133
1921016S18039 1921 2 SI MM NOT_NAMED 1921-01-21 12:00:00 TS -18.3481 43.0865 main 95 94 _____P___OO___ -1 -18.2444 43.0597 99 -18.4000 43.1000 TC 65 -18.4000 43.1000 4 2 142
1921016S18039 1921 2 SI MM NOT_NAMED 1921-01-21 15:00:00 TS -18.4369 43.1483 main 94 84 _____P___PP___ -1 -18.3223 43.1337 99 -18.4850 43.1500 TC 65 -18.5034 43.1612 4 2 150
1921016S18039 1921 2 SI MM NOT_NAMED 1921-01-21 18:00:00 TS -18.5442 43.2058 main 85 77 _____P___OP___ -1 -18.4050 43.2024 99 -18.6000 43.2000 TC 65 -18.6275 43.2150 4 3 156
1921016S18039 1921 2 SI MM NOT_NAMED 1921-01-21 21:00:00 TS -18.6687 43.2586 main 81 81 _____P___PP___ -1 -18.4934 43.2645 99 -18.7500 43.2500 TC 65 -18.7628 43.2612 4 3 158
1921016S18039 1921 2 SI MM NOT_NAMED 1921-01-22 00:00:00 TS -18.7960 43.3063 main 86 84 _____P___OO___ -1 -18.5881 43.3190 99 -18.9000 43.3000 TC 65 -18.9000 43.3000 4 3 159
1921016S18039 1921 2 SI MM NOT_NAMED 1921-01-22 03:00:00 TS -18.9050 43.3555 main 84 84 _____P___PP___ -1 -18.6901 43.3645 99 -19.0000 43.3575 TC 65 -19.0250 43.3443 4 2 160
1921016S18039 1921 2 SI MM NOT_NAMED 1921-01-22 06:00:00 TS -19.0167 43.3933 reunion main 84 84 _____O___OP___ -1 -18.8000 43.4000 99 9.90000 -19.1000 43.4000 TC 65 -19.1500 43.3799 4 3 168
1921016S18039 1921 2 SI MM NOT_NAMED 1921-01-22 09:00:00 TS -19.1499 43.4180 main 84 84 _____P___PP___ -1 -18.9322 43.4385 99 -19.2425 43.4150 TC 65 -19.2750 43.4006 4 3 0
1921016S18039 1921 2 SI MM NOT_NAMED 1921-01-22 12:00:00 TS -19.2915 43.4228 main 86 86 _____P___OO___ -1 -19.0746 43.4684 99 -19.4000 43.4000 TC 65 -19.4000 43.4000 4 3 182
1921016S18039 1921 2 SI MM NOT_NAMED 1921-01-22 15:00:00 TS -19.4378 43.4072 main 90 90 _____P___PP___ -1 -19.2227 43.4884 99 -19.5575 43.3575 TC 65 -19.5331 43.3757 4 3 188
1921016S18039 1921 2 SI MM NOT_NAMED 1921-01-22 18:00:00 TS -19.5791 43.3758 main 100 100 _____P___OP___ -1 -19.3723 43.4974 99 -19.7000 43.3000 TC 65 -19.6650 43.3301 4 3 195
1921016S18039 1921 2 SI MM NOT_NAMED 1921-01-22 21:00:00 TS -19.7053 43.3379 main 115 114 _____P___PP___ -1 -19.5191 43.4943 99 -19.8075 43.2500 TC 65 -19.7894 43.2694 4 3 198
1921016S18039 1921 2 SI MM NOT_NAMED 1921-01-23 00:00:00 TS -19.8196 43.2926 main 114 107 _____P___OO___ -1 -19.6589 43.4778 99 -19.9000 43.2000 TC 65 -19.9000 43.2000 4 2 201
1921016S18039 1921 2 SI MM NOT_NAMED 1921-01-23 03:00:00 TS -19.9294 43.2482 main 115 109 _____P___PP___ -1 -19.7873 43.4467 99 -20.0075 43.1575 TC 65 -19.9934 43.1403 4 2 206
1921016S18039 1921 2 SI MM NOT_NAMED 1921-01-23 06:00:00 TS -20.0242 43.1908 reunion main 109 103 _____O___OP___ -1 -19.9000 43.4000 99 9.90000 -20.1000 43.1000 TC 65 -20.0725 43.0725 4 2 220
1921016S18039 1921 2 SI MM NOT_NAMED 1921-01-23 09:00:00 TS -20.0909 43.1101 main 113 113 _____P___PP___ -1 -19.9750 43.3296 99 -20.1575 43.0075 TC 65 -20.1403 42.9934 4 2 234
1921016S18039 1921 2 SI MM NOT_NAMED 1921-01-23 12:00:00 TS -20.1448 43.0138 main 122 115 _____P___OO___ -1 -20.0343 43.2413 99 -20.2000 42.9000 TC 65 -20.2000 42.9000 4 2 241
1921016S18039 1921 2 SI MM NOT_NAMED 1921-01-23 15:00:00 TS -20.1951 42.9095 main 123 123 _____P___PP___ -1 -20.0821 43.1398 99 -20.2500 42.8075 TC 65 -20.2532 42.7812 4 2 245
1921016S18039 1921 2 SI MM NOT_NAMED 1921-01-23 18:00:00 TS -20.2410 42.7933 main 132 127 _____P___OP___ -1 -20.1228 43.0300 99 -20.3000 42.7000 TC 65 -20.3001 42.6500 4 2 249
1921016S18039 1921 2 SI MM NOT_NAMED 1921-01-23 21:00:00 TS -20.2859 42.6617 main 136 136 _____P___PP___ -1 -20.1607 42.9163 99 -20.3500 42.5500 TC 65 -20.3469 42.5187 4 3 249
1921016S18039 1921 2 SI MM NOT_NAMED 1921-01-24 00:00:00 TS -20.3333 42.5346 main 156 152 _____P___OO___ -1 -20.1999 42.8037 99 -20.4000 42.4000 TC 65 -20.4000 42.4000 4 2 246
1921016S18039 1921 2 SI MM NOT_NAMED 1921-01-24 03:00:00 TS -20.3837 42.4267 main 159 159 _____P___PP___ -1 -20.2449 42.6967 99 -20.4425 42.2850 TC 65 -20.4637 42.2984 4 2 239
1921016S18039 1921 2 SI MM NOT_NAMED 1921-01-24 06:00:00 TS -20.4450 42.3375 reunion main 167 160 _____O___OP___ -1 -20.3000 42.6000 99 9.90000 -20.5000 42.2000 TC 65 -20.5350 42.2125 4 2 226
1921016S18039 1921 2 SI MM NOT_NAMED 1921-01-24 09:00:00 TS -20.5286 42.2643 main 160 160 _____P___PP___ -1 -20.3794 42.5124 99 -20.5925 42.1350 TC 65 -20.6137 42.1453 4 2 214
1921016S18039 1921 2 SI MM NOT_NAMED 1921-01-24 12:00:00 TS -20.6224 42.2103 main 161 155 _____P___OO___ -1 -20.4671 42.4309 99 -20.7000 42.1000 TC 65 -20.7000 42.1000 4 2 205
1921016S18039 1921 2 SI MM NOT_NAMED 1921-01-24 15:00:00 TS -20.7182 42.1735 main 155 150 _____P___PP___ -1 -20.5618 42.3579 99 -20.8000 42.0925 TC 65 -20.7928 42.0703 4 2 198
1921016S18039 1921 2 SI MM NOT_NAMED 1921-01-24 18:00:00 TS -20.8183 42.1527 main 150 150 _____P___OP___ -1 -20.6624 42.2955 99 -20.9000 42.1000 TC 65 -20.8925 42.0625 4 2 189
1921016S18039 1921 2 SI MM NOT_NAMED 1921-01-24 21:00:00 TS -20.9212 42.1374 main 155 151 _____P___PP___ -1 -20.7676 42.2462 99 -21.0000 42.0925 TC 65 -20.9959 42.0734 4 2 0
1921016S18039 1921 2 SI MM NOT_NAMED 1921-01-25 00:00:00 TS -21.0255 42.1374 main 151 138 _____P___OO___ -1 -20.8764 42.2123 99 -21.1000 42.1000 TC 65 -21.1000 42.1000 4 2 0
1921016S18039 1921 2 SI MM NOT_NAMED 1921-01-25 03:00:00 TS -21.1279 42.1567 main 138 136 _____P___PP___ -1 -20.9876 42.1961 99 -21.2000 42.1425 TC 65 -21.1959 42.1316 4 2 165
1921016S18039 1921 2 SI MM NOT_NAMED 1921-01-25 06:00:00 TS -21.2308 42.1925 reunion main 136 135 _____O___OP___ -1 -21.1000 42.2000 99 9.90000 -21.3000 42.2000 TC 65 -21.2925 42.1775 4 2 157
1921016S18039 1921 2 SI MM NOT_NAMED 1921-01-25 09:00:00 TS -21.3279 42.2390 main 135 122 _____P___PP___ -1 -21.1983 42.2321 99 -21.3925 42.2500 TC 65 -21.3928 42.2347 4 2 154
1921016S18039 1921 2 SI MM NOT_NAMED 1921-01-25 12:00:00 TS -21.4325 42.2953 main 122 108 _____P___OO___ -1 -21.2976 42.2859 99 -21.5000 42.3000 TC 65 -21.5000 42.3000 4 3 156
1921016S18039 1921 2 SI MM NOT_NAMED 1921-01-25 15:00:00 TS -21.5530 42.3543 main 103 98 _____P___PP___ -1 -21.3994 42.3566 99 -21.6500 42.3425 TC 65 -21.6097 42.3638 4 3 155
1921016S18039 1921 2 SI MM NOT_NAMED 1921-01-25 18:00:00 TS -21.6776 42.4249 main 98 84 _____P___OP___ -1 -21.5052 42.4396 99 -21.8000 42.4000 TC 65 -21.7275 42.4351 4 3 148
1921016S18039 1921 2 SI MM NOT_NAMED 1921-01-25 21:00:00 TS -21.7910 42.5122 main 84 70 _____P___PP___ -1 -21.6166 42.5301 99 -21.9000 42.4925 TC 65 -21.8565 42.5138 4 3 144
1921016S18039 1921 2 SI MM NOT_NAMED 1921-01-26 00:00:00 TS -21.9117 42.6078 main 70 56 _____P___OO___ -1 -21.7352 42.6235 99 -22.0000 42.6000 TC 65 -22.0000 42.6000 4 3 145
1921016S18039 1921 2 SI MM NOT_NAMED 1921-01-26 03:00:00 TS -22.0527 42.7053 main 52 41 _____P___PP___ -1 -21.8624 42.7150 99 -22.1350 42.7000 TC 65 -22.1607 42.7009 4 4 149
1921016S18039 1921 2 SI MM NOT_NAMED 1921-01-26 06:00:00 TS -22.2117 42.8025 reunion main 41 30 _____O___OP___ -1 -22.0000 42.8000 99 9.90000 -22.3000 42.8000 TC 65 -22.3350 42.8074 4 4 152
1921016S18039 1921 2 SI MM NOT_NAMED 1921-01-26 09:00:00 TS -22.3845 42.8992 main 32 30 _____P___PP___ -1 -22.1364 42.8800 99 -22.5000 42.9075 TC 65 -22.5169 42.9102 4 4 154
1921016S18039 1921 2 SI MM NOT_NAMED 1921-01-26 12:00:00 TS -22.5605 42.9861 main 32 32 _____P___OO___ -1 -22.2816 42.9583 99 -22.7000 43.0000 TC 65 -22.7000 43.0000 4 4 157
1921016S18039 1921 2 SI MM NOT_NAMED 1921-01-26 15:00:00 TS -22.7220 43.0529 main 30 30 _____P___PP___ -1 -22.4365 43.0314 99 -22.8500 43.0576 TC 65 -22.8793 43.0697 4 3 160
1921016S18039 1921 2 SI MM NOT_NAMED 1921-01-26 18:00:00 TS -22.8575 43.1052 main 32 32 _____P___OP___ -1 -22.6025 43.0961 99 -23.0000 43.1000 TC 65 -23.0550 43.1226 4 3 163
1921016S18039 1921 2 SI MM NOT_NAMED 1921-01-26 21:00:00 TS -22.9942 43.1523 main 30 30 _____P___PP___ -1 -22.7806 43.1488 99 -23.1875 43.1474 TC 65 -23.2281 43.1641 4 3 163
1921016S18039 1921 2 SI MM NOT_NAMED 1921-01-27 00:00:00 TS -23.1148 43.1906 main 37 37 _____P___OO___ -1 -22.9721 43.1860 99 -23.4000 43.2000 TC 65 -23.4000 43.2000 4 2 166
1921016S18039 1921 2 SI MM NOT_NAMED 1921-01-27 03:00:00 NR -23.1782 43.2042 main 40 40 _____P________ -1 -23.1782 43.2042 99 TC 4 3 179
1921016S18039 1921 2 SI MM NOT_NAMED 1921-01-27 06:00:00 NR -23.4000 43.2000 reunion main 42 42 _____O________ -1 -23.4000 43.2000 99 9.90000 4 5 185
1921016S18039 1921 2 SI MM NOT_NAMED 1921-01-27 09:00:00 NR -23.6382 43.1708 main 42 40 _____P________ -1 -23.6382 43.1708 99 4 5 189
1921016S18039 1921 2 SI MM NOT_NAMED 1921-01-27 12:00:00 NR -23.8911 43.1187 main 55 55 _____P________ -1 -23.8911 43.1187 99 5 192
1921016S18039 1921 2 SI MM NOT_NAMED 1921-01-27 15:00:00 NR -24.1568 43.0468 main 71 71 _____P________ -1 -24.1568 43.0468 99 6 196
1921016S18039 1921 2 SI MM NOT_NAMED 1921-01-27 18:00:00 NR -24.4329 42.9581 main 78 78 _____P________ -1 -24.4329 42.9581 99 6 197
1921016S18039 1921 2 SI MM NOT_NAMED 1921-01-27 21:00:00 NR -24.7175 42.8559 main 91 91 _____P________ -1 -24.7175 42.8559 99 6 198
1921016S18039 1921 2 SI MM NOT_NAMED 1921-01-28 00:00:00 NR -25.0083 42.7433 main 119 119 _____P________ -1 -25.0083 42.7433 99 6 200
1921016S18039 1921 2 SI MM NOT_NAMED 1921-01-28 03:00:00 NR -25.3031 42.6236 main 143 143 _____P________ -1 -25.3031 42.6236 99 6 201
1921016S18039 1921 2 SI MM NOT_NAMED 1921-01-28 06:00:00 NR -25.6000 42.5000 reunion main 164 _____O________ -1 -25.6000 42.5000 99 9.90000 6 200

IBTrACS Databaseについて

本データベースは、米国NOAAが公開する1842年以降の世界の熱帯低気圧のベストトラックデータアーカイブInternational Best Track Archive for Climate Stewardship (IBTrACS)を、ウェブで閲覧しやすい形式に変換したものです。

最終更新日:2021-11-26